Time;durP1;ratioP1;P1;durP2;ratioP2;P2;SDS_P1;SDS_P2;PMS_P1;PMS_P2;Temp;Humidity;BMP_temperature;BMP_pressure;BME280_temperature;BME280_humidity;BME280_pressure;Samples;Min_cycle;Max_cycle;Signal;HPM_P1;HPM_P2
2022/11/12 00:00:43;;;;;;;40.03;19.48;;;6.50;99.90;;;;;;5134775;27;20482;-67
2022/11/12 00:03:09;;;;;;;35.08;19.63;;;6.90;99.90;;;;;;5134566;27;20051;-66
2022/11/12 00:05:35;;;;;;;39.92;19.75;;;6.50;99.90;;;;;;5134731;27;20054;-66
2022/11/12 00:08:01;;;;;;;35.15;19.67;;;;;;;;;;5133408;27;20122;-68
2022/11/12 00:10:27;;;;;;;;;;;6.90;99.90;;;;;;5135083;27;20083;-66
2022/11/12 00:12:53;;;;;;;33.60;18.92;;;6.50;99.90;;;;;;5134595;27;19974;-66
2022/11/12 00:15:18;;;;;;;35.22;19.65;;;6.80;99.90;;;;;;5134113;27;20050;-66
2022/11/12 00:17:44;;;;;;;39.17;19.42;;;6.90;99.90;;;;;;5134302;27;20043;-66
2022/11/12 00:20:11;;;;;;;36.85;19.42;;;;;;;;;;5134289;27;20050;-66
2022/11/12 00:22:36;;;;;;;;;;;6.70;99.90;;;;;;5133459;27;20082;-67
2022/11/12 00:25:03;;;;;;;32.90;18.65;;;6.60;99.90;;;;;;5132939;27;20330;-67
2022/11/12 00:27:31;;;;;;;38.47;19.30;;;6.60;99.90;;;;;;5134358;27;20051;-67
2022/11/12 00:29:57;;;;;;;30.83;17.55;;;;;;;;;;5133815;27;20568;-66
2022/11/12 00:32:22;;;;;;;29.02;17.27;;;6.40;99.90;;;;;;5133798;27;20054;-66
2022/11/12 00:34:48;;;;;;;28.25;17.13;;;6.60;99.90;;;;;;5133731;27;20059;-66
2022/11/12 00:37:15;;;;;;;34.20;17.83;;;6.60;99.90;;;;;;5134017;27;20403;-66
2022/11/12 00:39:41;;;;;;;31.67;17.67;;;6.40;99.90;;;;;;5134010;27;20057;-66
2022/11/12 00:42:07;;;;;;;28.77;17.52;;;6.50;99.90;;;;;;5134147;27;20039;-66
2022/11/12 00:44:32;;;;;;;32.00;17.55;;;6.60;99.90;;;;;;5134150;27;20492;-66
2022/11/12 00:46:58;;;;;;;29.38;16.30;;;6.30;99.90;;;;;;5133242;27;20043;-66
2022/11/12 00:49:23;;;;;;;24.65;14.85;;;6.10;99.90;;;;;;5134039;27;20043;-66
2022/11/12 00:51:49;;;;;;;25.75;16.05;;;6.20;99.90;;;;;;5132270;27;20068;-66
2022/11/12 00:54:15;;;;;;;26.38;15.95;;;6.30;99.90;;;;;;5133697;27;20361;-66
2022/11/12 00:56:41;;;;;;;29.67;16.70;;;6.60;99.90;;;;;;5133900;27;20053;-67
2022/11/12 00:59:07;;;;;;;28.20;16.65;;;6.30;99.90;;;;;;5133889;27;20043;-67
2022/11/12 01:01:33;;;;;;;32.35;17.23;;;;;;;;;;5133581;27;20090;-66
2022/11/12 01:03:59;;;;;;;32.25;16.73;;;6.30;99.90;;;;;;5132637;27;20432;-66
2022/11/12 01:06:25;;;;;;;27.08;14.80;;;;;;;;;;5133830;27;20047;-66
2022/11/12 01:08:51;;;;;;;28.25;17.08;;;6.10;99.90;;;;;;5132500;27;20436;-66
2022/11/12 01:11:19;;;;;;;33.35;16.80;;;6.10;99.90;;;;;;5133363;28;20047;-67
2022/11/12 01:13:51;;;;;;;36.03;17.80;;;6.10;99.90;;;;;;5133488;27;20131;-66
2022/11/12 01:16:20;;;;;;;29.50;17.83;;;6.40;99.90;;;;;;5133826;27;20099;-67
2022/11/12 01:18:47;;;;;;;30.88;17.17;;;6.30;99.90;;;;;;5133704;27;20047;-66
2022/11/12 01:21:13;;;;;;;34.65;18.02;;;6.20;99.90;;;;;;5133665;27;20407;-66
2022/11/12 01:23:41;;;;;;;35.05;18.63;;;6.10;99.90;;;;;;5133566;28;20047;-66
2022/11/12 01:26:09;;;;;;;38.35;19.17;;;6.40;99.90;;;;;;5133690;27;20051;-67
2022/11/12 01:28:36;;;;;;;35.10;19.05;;;6.30;99.90;;;;;;5136465;27;20475;-67
2022/11/12 01:31:18;;;;;;;34.30;18.90;;;6.30;99.90;;;;;;5137770;27;20130;-67
2022/11/12 01:33:46;;;;;;;37.17;18.83;;;6.20;99.90;;;;;;5137806;27;20043;-66
2022/11/12 01:36:13;;;;;;;35.40;19.55;;;6.40;99.90;;;;;;5137578;27;20058;-70
2022/11/12 01:38:40;;;;;;;41.17;20.48;;;6.30;99.90;;;;;;5137641;27;20043;-67
2022/11/12 01:41:07;;;;;;;34.80;19.65;;;6.00;99.90;;;;;;5137648;27;20425;-67
2022/11/12 01:43:33;;;;;;;37.17;19.70;;;6.10;99.90;;;;;;5137274;27;20122;-66
2022/11/12 01:46:03;;;;;;;33.80;18.75;;;6.10;99.90;;;;;;5136062;27;20126;-67
2022/11/12 01:48:37;;;;;;;37.30;21.05;;;;;;;;;;5137486;27;20055;-67
2022/11/12 01:51:04;;;;;;;33.92;18.80;;;;;;;;;;5136095;27;20046;-67
2022/11/12 01:53:36;;;;;;;43.15;20.95;;;6.60;99.90;;;;;;5137014;27;20510;-66
2022/11/12 01:56:03;;;;;;;34.70;19.92;;;;;;;;;;5137710;27;20122;-67
2022/11/12 01:58:31;;;;;;;35.75;18.80;;;6.40;99.90;;;;;;5136978;27;20394;-67
2022/11/12 02:00:56;;;;;;;40.08;21.23;;;6.30;99.90;;;;;;5137268;27;20425;-67
2022/11/12 02:03:23;;;;;;;35.83;21.13;;;6.00;99.90;;;;;;5136934;27;20043;-69
2022/11/12 02:05:55;;;;;;;34.08;19.58;;;6.30;99.90;;;;;;5135881;27;20070;-67
2022/11/12 02:08:23;;;;;;;38.45;20.27;;;6.40;99.90;;;;;;5136843;27;20447;-67
2022/11/12 02:10:49;;;;;;;34.28;19.20;;;6.20;99.90;;;;;;5137002;27;20043;-67
2022/11/12 02:16:02;;;;;;;34.80;18.88;;;6.50;99.90;;;;;;5136934;27;20121;-67
2022/11/12 02:18:28;;;;;;;34.47;19.65;;;6.20;99.90;;;;;;5136891;27;20126;-68
2022/11/12 02:20:56;;;;;;;34.53;19.98;;;6.50;99.90;;;;;;5136856;27;20130;-67
2022/11/12 02:23:22;;;;;;;36.85;20.50;;;6.40;99.90;;;;;;5135939;27;20498;-68
2022/11/12 02:25:48;;;;;;;38.33;21.75;;;6.20;99.90;;;;;;5136716;27;20054;-67
2022/11/12 02:28:16;;;;;;;41.70;21.63;;;6.20;99.90;;;;;;5136470;27;20101;-67
2022/11/12 02:30:45;;;;;;;38.75;21.00;;;6.20;99.90;;;;;;5136696;27;20050;-67
2022/11/12 02:33:10;;;;;;;42.92;21.52;;;6.30;99.90;;;;;;5135254;27;20046;-67
2022/11/12 02:35:36;;;;;;;41.90;21.35;;;6.30;99.90;;;;;;5136295;27;20157;-67
2022/11/12 02:38:03;;;;;;;38.92;22.15;;;;;;;;;;5136373;27;20053;-67
2022/11/12 02:40:29;;;;;;;43.97;23.38;;;6.30;99.90;;;;;;5136405;27;20091;-67
2022/11/12 02:42:54;;;;;;;39.20;22.23;;;6.20;99.90;;;;;;5136502;27;20047;-67
2022/11/12 02:45:20;;;;;;;38.58;21.10;;;6.20;99.90;;;;;;5136369;27;20558;-67
2022/11/12 02:47:46;;;;;;;36.60;21.23;;;5.90;99.90;;;;;;5136670;27;20094;-67
2022/11/12 02:50:12;;;;;;;45.05;22.13;;;;;;;;;;5136300;27;20038;-67
2022/11/12 02:52:41;;;;;;;42.75;21.75;;;;;;;;;;5136171;27;20089;-68
2022/11/12 02:55:09;;;;;;;40.20;22.40;;;6.10;99.90;;;;;;5136243;27;20047;-67
2022/11/12 02:57:35;;;;;;;38.78;22.80;;;6.10;99.90;;;;;;5135952;27;20039;-67
2022/11/12 03:00:02;;;;;;;38.00;22.45;;;5.90;99.90;;;;;;5134949;27;20047;-67
2022/11/12 03:02:28;;;;;;;41.78;22.77;;;6.10;99.90;;;;;;5136048;27;20055;-70
2022/11/12 03:04:53;;;;;;;42.58;22.00;;;5.80;99.90;;;;;;5135657;27;20551;-67
2022/11/12 03:07:19;;;;;;;40.90;21.42;;;;;;;;;;5136039;27;20051;-67
2022/11/12 03:09:45;;;;;;;40.97;21.77;;;5.90;99.90;;;;;;5135637;27;20046;-67
2022/11/12 03:12:11;;;;;;;38.90;22.20;;;5.80;99.90;;;;;;5134211;27;20391;-67
2022/11/12 03:14:36;;;;;;;38.45;22.35;;;6.10;99.90;;;;;;5135829;27;20050;-67
2022/11/12 03:17:02;;;;;;;36.70;20.85;;;6.10;99.90;;;;;;5135830;27;20043;-67
2022/11/12 03:19:28;;;;;;;38.95;22.50;;;5.80;99.90;;;;;;5135764;27;20055;-69
2022/11/12 03:21:54;;;;;;;39.65;22.30;;;5.60;99.90;;;;;;5135632;27;20041;-67
2022/11/12 03:24:19;;;;;;;48.25;22.75;;;5.80;99.90;;;;;;5135058;27;20043;-67
2022/11/12 03:26:45;;;;;;;37.92;21.80;;;;;;;;;;5135586;27;20055;-67
2022/11/12 03:29:11;;;;;;;39.72;23.35;;;5.70;99.90;;;;;;5135477;27;20042;-67
2022/11/12 03:31:37;;;;;;;40.00;23.23;;;6.10;99.90;;;;;;5135456;27;20047;-67
2022/11/12 03:34:03;;;;;;;;;;;;;;;;;;5136155;27;20103;-70
2022/11/12 03:36:29;;;;;;;43.40;24.15;;;5.90;99.90;;;;;;5135402;27;19919;-67
2022/11/12 03:38:55;;;;;;;47.35;24.50;;;5.90;99.90;;;;;;5133851;27;20047;-67
2022/11/12 03:41:21;;;;;;;46.47;26.33;;;;;;;;;;5135290;27;20050;-67
2022/11/12 03:43:47;;;;;;;50.00;27.17;;;6.20;99.90;;;;;;5135171;27;20096;-67
2022/11/12 03:46:12;;;;;;;58.33;29.08;;;6.10;99.90;;;;;;5135206;27;20039;-67
2022/11/12 03:48:38;;;;;;;58.42;29.98;;;6.30;99.90;;;;;;5134884;27;20104;-67
2022/11/12 03:51:04;;;;;;;58.45;30.02;;;6.40;99.90;;;;;;5134465;27;20094;-67
2022/11/12 03:53:30;;;;;;;54.55;30.10;;;6.50;99.90;;;;;;5134672;27;20047;-67
2022/11/12 03:55:55;;;;;;;59.70;31.48;;;6.70;99.90;;;;;;5133820;27;20047;-67
2022/11/12 03:58:21;;;;;;;60.92;32.20;;;7.00;99.90;;;;;;5134952;27;20051;-67
2022/11/12 04:00:46;;;;;;;64.10;32.63;;;6.80;99.90;;;;;;5134922;27;20087;-67
2022/11/12 04:03:12;;;;;;;61.15;33.17;;;7.20;99.90;;;;;;5134885;27;20078;-67
2022/11/12 04:08:34;;;;;;;69.30;33.22;;;7.20;99.90;;;;;;5134507;27;20066;-67
2022/11/12 04:11:02;;;;;;;71.60;35.17;;;6.80;99.90;;;;;;5133596;27;20363;-68
2022/11/12 04:13:28;;;;;;;87.00;36.08;;;7.10;99.90;;;;;;5134592;27;20043;-68
2022/11/12 04:21:55;;;;;;;83.85;37.55;;;7.10;99.90;;;;;;5134536;27;20054;-67
2022/11/12 04:27:14;;;;;;;100.43;38.17;;;7.20;99.90;;;;;;5134301;27;20107;-67
2022/11/12 04:32:25;;;;;;;90.25;37.65;;;7.20;99.90;;;;;;5134278;27;20138;-67
2022/11/12 04:34:51;;;;;;;91.65;37.83;;;7.50;99.90;;;;;;5134063;27;20125;-67
2022/11/12 04:37:17;;;;;;;;;;;7.20;99.90;;;;;;5134155;27;20554;-67
2022/11/12 04:39:43;;;;;;;96.18;38.38;;;7.10;99.90;;;;;;5134180;27;19959;-67
2022/11/12 04:45:03;;;;;;;105.38;38.38;;;7.60;99.90;;;;;;5134194;27;20101;-67
2022/11/12 04:47:33;;;;;;;99.45;38.90;;;7.30;99.90;;;;;;5134235;27;20134;-69
2022/11/12 04:50:00;;;;;;;102.43;38.42;;;7.30;99.90;;;;;;5134307;27;20535;-70
2022/11/12 04:52:27;;;;;;;91.38;38.67;;;8.00;99.90;;;;;;5132491;27;20039;-67
2022/11/12 04:54:53;;;;;;;86.65;36.15;;;7.70;99.90;;;;;;5133657;27;20479;-67
2022/11/12 04:57:19;;;;;;;87.60;37.88;;;7.60;99.90;;;;;;5134041;27;20047;-67
2022/11/12 04:59:45;;;;;;;134.70;42.20;;;7.30;99.90;;;;;;5133922;27;20054;-67
2022/11/12 05:02:11;;;;;;;127.85;41.22;;;7.30;99.90;;;;;;5133029;27;20046;-67
2022/11/12 05:04:37;;;;;;;150.10;41.72;;;7.60;99.90;;;;;;5133922;27;20047;-67
2022/11/12 05:07:03;;;;;;;152.35;43.08;;;7.40;99.90;;;;;;5133217;27;20047;-67
2022/11/12 05:09:29;;;;;;;127.22;40.90;;;7.70;99.90;;;;;;5133777;27;20118;-67
2022/11/12 05:11:56;;;;;;;145.52;41.60;;;7.80;99.90;;;;;;5133485;27;20484;-70
2022/11/12 05:14:22;;;;;;;261.67;50.78;;;7.60;99.90;;;;;;5133785;27;20050;-67
2022/11/12 05:16:48;;;;;;;161.82;43.47;;;7.30;99.90;;;;;;5133706;27;20134;-67
2022/11/12 05:19:14;;;;;;;160.35;43.30;;;7.30;99.90;;;;;;5133717;27;20043;-68
2022/11/12 05:24:24;;;;;;;148.32;41.65;;;7.40;99.90;;;;;;5133702;28;20096;-67
2022/11/12 05:26:50;;;;;;;200.10;47.60;;;7.90;99.90;;;;;;5133630;28;20043;-70
2022/11/12 05:29:16;;;;;;;214.27;46.00;;;7.30;99.90;;;;;;5133552;28;20054;-68
2022/11/12 05:31:42;;;;;;;131.15;35.50;;;7.60;99.90;;;;;;5133812;28;20039;-67
2022/11/12 05:34:07;;;;;;;199.07;43.65;;;7.70;99.90;;;;;;5133530;27;20391;-67
2022/11/12 05:36:33;;;;;;;214.65;44.20;;;7.80;99.90;;;;;;5132843;28;20059;-67
2022/11/12 05:38:59;;;;;;;177.95;42.28;;;7.60;99.90;;;;;;5133495;28;20498;-67
2022/11/12 05:41:25;;;;;;;180.05;43.97;;;7.60;99.90;;;;;;5132239;28;20404;-67
2022/11/12 05:43:50;;;;;;;218.55;45.40;;;7.60;99.90;;;;;;5133466;27;20047;-68
2022/11/12 05:46:16;;;;;;;227.07;45.25;;;7.30;99.90;;;;;;5133484;27;20100;-68
2022/11/12 05:48:42;;;;;;;191.88;43.47;;;7.40;99.90;;;;;;5133725;28;20047;-67
2022/11/12 05:51:07;;;;;;;184.73;42.13;;;7.20;99.90;;;;;;5133093;28;20050;-67
2022/11/12 05:53:33;;;;;;;162.00;41.85;;;7.30;99.90;;;;;;5132127;28;20051;-68
2022/11/12 05:56:06;;;;;;;180.48;44.47;;;7.60;99.90;;;;;;5133408;27;20045;-67
2022/11/12 05:58:32;;;;;;;204.52;45.17;;;7.70;99.90;;;;;;5133314;28;20423;-67
2022/11/12 06:00:58;;;;;;;216.00;44.67;;;7.50;99.90;;;;;;5133345;27;20053;-67
2022/11/12 06:03:24;;;;;;;178.52;43.05;;;7.70;99.90;;;;;;5133301;27;20043;-67
2022/11/12 06:05:51;;;;;;;176.05;44.42;;;7.20;99.90;;;;;;5132956;28;20193;-69
2022/11/12 06:08:17;;;;;;;;;;;7.70;99.90;;;;;;5133648;27;20049;-67
2022/11/12 06:10:47;;;;;;;150.90;42.53;;;7.30;99.90;;;;;;5131989;28;20022;-67
2022/11/12 06:13:13;;;;;;;226.25;45.83;;;7.70;99.90;;;;;;5133901;27;20092;-67
2022/11/12 06:15:38;;;;;;;166.45;44.08;;;7.80;99.90;;;;;;5136993;27;20047;-67
2022/11/12 06:18:04;;;;;;;175.90;42.58;;;7.70;99.90;;;;;;5136897;27;20047;-67
2022/11/12 06:20:30;;;;;;;190.88;44.08;;;;;;;;;;5136695;27;20083;-67
2022/11/12 06:22:56;;;;;;;168.30;42.58;;;7.60;99.90;;;;;;5135878;27;20054;-67
2022/11/12 06:25:22;;;;;;;177.50;43.53;;;7.70;99.90;;;;;;5136829;27;20502;-67
2022/11/12 06:27:47;;;;;;;180.05;44.22;;;7.40;99.90;;;;;;5136765;27;20106;-67
2022/11/12 06:30:13;;;;;;;151.30;41.45;;;7.40;99.90;;;;;;5136714;27;20119;-67
2022/11/12 06:32:39;;;;;;;138.32;41.10;;;7.80;99.90;;;;;;5136593;27;20038;-77
2022/11/12 06:35:05;;;;;;;187.00;41.85;;;7.90;99.90;;;;;;5136520;27;20471;-67
2022/11/12 06:37:31;;;;;;;136.02;39.72;;;7.60;99.90;;;;;;5136591;27;20510;-67
2022/11/12 06:39:57;;;;;;;217.15;43.92;;;7.80;99.90;;;;;;5136595;27;20083;-66
2022/11/12 06:42:22;;;;;;;164.80;39.72;;;7.70;99.90;;;;;;5136563;27;20051;-67
2022/11/12 06:44:48;;;;;;;166.02;40.60;;;7.60;99.90;;;;;;5136548;27;20466;-66
2022/11/12 06:47:14;;;;;;;171.90;38.88;;;8.00;99.90;;;;;;5136195;27;20050;-67
2022/11/12 06:49:39;;;;;;;164.95;39.55;;;8.10;99.90;;;;;;5136684;27;20043;-67
2022/11/12 06:52:05;;;;;;;169.07;36.47;;;7.90;99.90;;;;;;5136671;27;20043;-67
2022/11/12 06:54:31;;;;;;;216.77;38.75;;;7.80;99.90;;;;;;5136296;27;20051;-70
2022/11/12 06:56:56;;;;;;;276.80;42.38;;;7.30;99.90;;;;;;5135243;27;20542;-67
2022/11/12 06:59:22;;;;;;;185.10;37.60;;;8.00;99.90;;;;;;5135051;27;20082;-67
2022/11/12 07:01:48;;;;;;;233.93;38.00;;;8.40;99.90;;;;;;5135956;27;20082;-67
2022/11/12 07:04:14;;;;;;;180.30;36.22;;;7.40;99.90;;;;;;5136434;27;20045;-67
2022/11/12 07:06:39;;;;;;;322.50;42.55;;;8.10;99.90;;;;;;5135960;27;20449;-66
2022/11/12 07:09:06;;;;;;;314.90;40.25;;;;;;;;;;5131241;27;20125;-73
2022/11/12 07:11:31;;;;;;;396.20;42.92;;;7.20;99.90;;;;;;5105416;28;20051;-70
2022/11/12 07:13:57;;;;;;;231.35;37.83;;;8.50;99.90;;;;;;5112282;27;20048;-67
2022/11/12 07:16:23;;;;;;;356.83;39.95;;;8.00;99.90;;;;;;5110687;28;20047;-67
2022/11/12 07:18:49;;;;;;;188.13;33.10;;;8.40;99.90;;;;;;5113676;28;20047;-66
2022/11/12 07:21:19;;;;;;;386.25;41.47;;;8.10;99.90;;;;;;5114360;28;20050;-66
2022/11/12 07:23:46;;;;;;;365.55;41.50;;;8.20;99.90;;;;;;5114456;28;20043;-66
2022/11/12 07:26:16;;;;;;;;;;;8.30;99.90;;;;;;5106636;27;20101;-67
2022/11/12 07:28:43;;;;;;;268.33;36.00;;;7.60;99.90;;;;;;5110835;28;19972;-67
2022/11/12 07:31:09;;;;;;;;;;;8.00;99.90;;;;;;5114015;28;20082;-66
2022/11/12 07:33:35;;;;;;;338.55;42.95;;;7.90;99.90;;;;;;5112534;28;20019;-66
2022/11/12 07:36:08;;;;;;;294.35;43.13;;;8.00;99.90;;;;;;5113160;28;20150;-68
2022/11/12 07:38:35;;;;;;;245.82;39.92;;;8.30;99.90;;;;;;5113850;28;20052;-66
2022/11/12 07:41:03;;;;;;;311.10;45.38;;;8.40;99.90;;;;;;5113576;28;20048;-66
2022/11/12 07:43:30;;;;;;;240.07;44.30;;;8.30;99.90;;;;;;5114675;28;20487;-66
2022/11/12 07:46:04;;;;;;;279.60;43.47;;;8.30;99.90;;;;;;5114368;28;20467;-66
2022/11/12 07:48:30;;;;;;;249.63;41.95;;;8.20;99.90;;;;;;5113829;27;20046;-77
2022/11/12 07:51:00;;;;;;;289.52;42.13;;;8.10;99.90;;;;;;5110906;27;20056;-68
2022/11/12 07:53:26;;;;;;;291.10;45.22;;;8.50;99.90;;;;;;5113070;28;20039;-65
2022/11/12 07:55:53;;;;;;;407.70;48.70;;;;;;;;;;5111840;28;20166;-70
2022/11/12 07:58:19;;;;;;;297.85;45.63;;;7.90;99.90;;;;;;5113212;28;20054;-64
2022/11/12 08:00:45;;;;;;;198.27;40.90;;;7.60;99.90;;;;;;5111798;28;20039;-64
2022/11/12 08:03:10;;;;;;;236.18;44.72;;;7.90;99.90;;;;;;5112428;28;20051;-65
2022/11/12 08:05:36;;;;;;;235.25;42.85;;;8.00;99.90;;;;;;5112509;28;20051;-63
2022/11/12 08:08:02;;;;;;;321.50;44.88;;;8.00;99.90;;;;;;5113046;28;20134;-70
2022/11/12 08:10:27;;;;;;;329.48;46.05;;;8.40;99.90;;;;;;5113037;28;20128;-64
2022/11/12 08:12:55;;;;;;;336.45;44.55;;;7.90;99.90;;;;;;5115954;27;20110;-64
2022/11/12 08:15:21;;;;;;;519.90;54.80;;;7.90;99.90;;;;;;5116373;27;20043;-64
2022/11/12 08:17:46;;;;;;;292.42;44.72;;;7.70;99.90;;;;;;5113785;28;20131;-64
2022/11/12 08:20:12;;;;;;;276.65;46.40;;;8.20;99.90;;;;;;5113963;28;20479;-64
2022/11/12 08:22:38;;;;;;;253.88;44.83;;;8.10;99.90;;;;;;5109363;28;20436;-65
2022/11/12 08:25:04;;;;;;;243.77;46.13;;;7.90;99.90;;;;;;5111210;28;20047;-64
2022/11/12 08:27:30;;;;;;;406.10;46.10;;;7.90;99.90;;;;;;5112401;28;20046;-65
2022/11/12 08:29:55;;;;;;;373.23;47.22;;;8.40;99.90;;;;;;5111499;28;20506;-66
2022/11/12 08:32:21;;;;;;;381.90;48.20;;;7.90;99.90;;;;;;5112837;28;20050;-65
2022/11/12 08:34:47;;;;;;;344.65;43.28;;;7.80;99.90;;;;;;5113214;28;20518;-65
2022/11/12 08:37:13;;;;;;;250.60;41.28;;;;;;;;;;5113585;28;20063;-66
2022/11/12 08:39:38;;;;;;;466.42;50.28;;;7.70;99.90;;;;;;5110299;27;20403;-64
2022/11/12 08:42:05;;;;;;;404.33;48.50;;;;;;;;;;5112230;28;20040;-64
2022/11/12 08:44:30;;;;;;;250.82;43.53;;;8.00;99.90;;;;;;5112002;28;20063;-64
2022/11/12 08:46:56;;;;;;;381.08;48.42;;;7.90;99.90;;;;;;5111799;28;20057;-63
2022/11/12 08:49:22;;;;;;;312.90;44.20;;;7.70;99.90;;;;;;5112357;28;20043;-64
2022/11/12 08:51:47;;;;;;;323.38;43.10;;;8.00;99.90;;;;;;5110771;28;20109;-67
2022/11/12 08:54:13;;;;;;;261.10;41.42;;;8.00;99.90;;;;;;5111739;28;20168;-65
2022/11/12 08:56:39;;;;;;;191.23;38.65;;;8.00;99.90;;;;;;5110628;28;20122;-64
2022/11/12 08:59:04;;;;;;;165.13;38.08;;;7.90;99.90;;;;;;5111962;28;20036;-64
2022/11/12 09:01:30;;;;;;;223.07;39.75;;;7.80;99.90;;;;;;5112161;28;20051;-64
2022/11/12 09:03:56;;;;;;;192.35;37.88;;;8.50;99.90;;;;;;5112005;28;20039;-67
2022/11/12 09:06:22;;;;;;;202.77;41.67;;;7.90;99.90;;;;;;5111908;28;20039;-64
2022/11/12 09:08:47;;;;;;;252.48;39.15;;;8.50;99.90;;;;;;5111698;28;20043;-67
2022/11/12 09:11:13;;;;;;;227.07;39.45;;;8.20;99.90;;;;;;5111891;28;20048;-65
2022/11/12 09:13:38;;;;;;;231.13;40.67;;;8.70;99.90;;;;;;5111568;28;20054;-64
2022/11/12 09:16:06;;;;;;;248.10;41.88;;;7.90;99.90;;;;;;5111344;28;20506;-65
2022/11/12 09:18:33;;;;;;;146.55;37.65;;;8.30;99.90;;;;;;5111879;28;20050;-63
2022/11/12 09:21:02;;;;;;;144.98;37.67;;;7.90;99.90;;;;;;5111966;28;20249;-66
2022/11/12 09:23:28;;;;;;;166.40;39.17;;;8.20;99.90;;;;;;5111543;28;20499;-67
2022/11/12 09:25:55;;;;;;;124.72;37.17;;;8.40;99.90;;;;;;5110250;28;20142;-65
2022/11/12 09:28:21;;;;;;;125.45;38.47;;;8.60;99.90;;;;;;5111280;28;20491;-64
2022/11/12 09:30:49;;;;;;;105.07;35.17;;;8.10;99.90;;;;;;5111754;28;20039;-66
2022/11/12 09:33:16;;;;;;;122.55;35.75;;;;;;;;;;5112770;28;20079;-66
2022/11/12 09:35:43;;;;;;;109.00;36.50;;;8.10;99.90;;;;;;5112933;28;20404;-66
2022/11/12 09:38:08;;;;;;;128.07;35.40;;;8.50;99.90;;;;;;5112990;28;20056;-66
2022/11/12 09:40:52;;;;;;;100.75;33.78;;;8.00;99.90;;;;;;5113275;28;20040;-66
2022/11/12 09:43:52;;;;;;;92.25;32.85;;;8.40;99.90;;;;;;5111591;28;20393;-69
2022/11/12 09:46:28;;;;;;;92.75;33.22;;;8.10;99.90;;;;;;5101734;28;20146;-67
2022/11/12 09:49:09;;;;;;;108.70;34.92;;;8.20;99.90;;;;;;5114709;28;20048;-67
2022/11/12 09:51:42;;;;;;;113.07;34.83;;;8.40;99.90;;;;;;5116768;28;20040;-66
2022/11/12 09:54:20;;;;;;;113.00;35.78;;;8.30;99.90;;;;;;5116524;28;20101;-69
2022/11/12 09:56:48;;;;;;;119.32;36.95;;;8.20;99.90;;;;;;5116554;28;20101;-66
2022/11/12 09:59:14;;;;;;;138.73;38.42;;;8.50;99.90;;;;;;5119596;27;20047;-66
2022/11/12 10:02:12;;;;;;;133.05;37.45;;;8.40;99.90;;;;;;5125304;27;20043;-67
2022/11/12 10:05:00;;;;;;;155.88;39.20;;;8.10;99.90;;;;;;5116674;28;20134;-70
2022/11/12 10:07:28;;;;;;;140.02;37.78;;;8.40;99.90;;;;;;5116325;28;20201;-67
2022/11/12 10:10:20;;;;;;;144.93;37.58;;;8.90;99.90;;;;;;5116528;28;20055;-67
2022/11/12 10:12:58;;;;;;;155.82;38.75;;;8.50;99.90;;;;;;5116430;28;20092;-67
2022/11/12 10:18:49;;;;;;;183.27;41.03;;;9.20;99.90;;;;;;5116480;28;20102;-67
2022/11/12 10:21:25;;;;;;;224.88;42.17;;;8.80;99.90;;;;;;5116407;28;20048;-67
2022/11/12 10:23:52;;;;;;;208.73;41.30;;;8.90;99.90;;;;;;5115892;28;20454;-67
2022/11/12 10:26:20;;;;;;;222.48;42.20;;;9.00;99.90;;;;;;5121498;27;20083;-66
2022/11/12 10:29:00;;;;;;;204.68;42.88;;;8.90;99.90;;;;;;5116223;28;20101;-67
2022/11/12 10:31:26;;;;;;;223.48;43.33;;;8.80;99.90;;;;;;5115872;28;20480;-66
2022/11/12 10:34:18;;;;;;;270.35;45.97;;;9.20;99.90;;;;;;5116138;28;20051;-67
2022/11/12 10:37:01;;;;;;;252.52;47.65;;;9.40;99.90;;;;;;5111760;28;20063;-71
2022/11/12 10:39:37;;;;;;;217.90;46.85;;;8.90;99.90;;;;;;5114761;28;20445;-67
2022/11/12 10:42:14;;;;;;;230.32;48.33;;;9.00;99.90;;;;;;5115962;28;20047;-67
2022/11/12 10:44:44;;;;;;;241.75;49.13;;;8.90;99.90;;;;;;5115779;28;20484;-67
2022/11/12 10:47:41;;;;;;;342.05;54.40;;;6.90;99.90;;;;;;5115984;28;20460;-67
2022/11/12 10:50:07;;;;;;;262.45;51.30;;;8.80;99.90;;;;;;5115868;28;20047;-67
2022/11/12 10:52:33;;;;;;;271.20;50.72;;;9.00;99.90;;;;;;5114474;28;20135;-67
2022/11/12 10:55:06;;;;;;;275.10;51.17;;;9.20;99.90;;;;;;5097385;28;20051;-70
2022/11/12 10:57:31;;;;;;;260.50;49.67;;;8.80;99.90;;;;;;5115364;28;20510;-67
2022/11/12 11:00:12;;;;;;;247.55;50.90;;;9.40;99.90;;;;;;5115527;28;20048;-67
2022/11/12 11:02:52;;;;;;;267.92;51.85;;;9.40;99.90;;;;;;5115542;28;20044;-67
2022/11/12 11:05:52;;;;;;;248.43;51.03;;;9.40;99.90;;;;;;5115590;28;20058;-67
2022/11/12 11:08:39;;;;;;;180.02;49.30;;;8.90;99.90;;;;;;5115301;28;20047;-67
2022/11/12 11:11:22;;;;;;;162.80;47.45;;;9.10;99.90;;;;;;5115335;28;20048;-68
2022/11/12 11:13:50;;;;;;;146.60;45.40;;;9.00;99.90;;;;;;5115339;28;20180;-68
2022/11/12 11:16:19;;;;;;;144.02;46.38;;;9.00;99.90;;;;;;5115306;28;20051;-67
2022/11/12 11:18:48;;;;;;;146.23;47.15;;;9.20;99.90;;;;;;5115268;28;20054;-70
2022/11/12 11:21:42;;;;;;;138.32;45.15;;;9.20;99.90;;;;;;5114357;28;20110;-67
2022/11/12 11:24:28;;;;;;;150.23;48.05;;;9.40;99.90;;;;;;5114694;28;20058;-67
2022/11/12 11:27:10;;;;;;;158.93;48.35;;;9.60;99.90;;;;;;5114875;28;20510;-67
2022/11/12 11:30:21;;;;;;;158.90;47.28;;;8.80;99.90;;;;;;5115214;28;20123;-67
2022/11/12 11:32:49;;;;;;;150.38;46.05;;;9.30;99.90;;;;;;5110816;28;20057;-67
2022/11/12 11:35:37;;;;;;;162.10;46.40;;;9.00;99.90;;;;;;5114843;28;20051;-67
2022/11/12 11:38:05;;;;;;;165.05;46.20;;;9.10;99.90;;;;;;5114581;28;20051;-67
2022/11/12 11:40:45;;;;;;;138.82;46.03;;;9.00;99.90;;;;;;5114820;28;20043;-67
2022/11/12 11:43:56;;;;;;;153.43;48.88;;;8.80;99.90;;;;;;5114882;28;20039;-67
2022/11/12 11:46:41;;;;;;;147.25;46.30;;;9.10;99.90;;;;;;5114846;28;20389;-67
2022/11/12 11:49:29;;;;;;;152.50;47.72;;;9.40;99.90;;;;;;5114717;28;20502;-67
2022/11/12 11:51:58;;;;;;;147.20;48.63;;;9.20;99.90;;;;;;5114338;28;20403;-68
2022/11/12 11:55:01;;;;;;;155.07;49.20;;;8.80;99.90;;;;;;5113330;28;20035;-67
2022/11/12 11:57:41;;;;;;;138.70;45.83;;;9.30;99.90;;;;;;5114478;28;20049;-67
2022/11/12 12:00:10;;;;;;;157.13;48.60;;;8.80;99.90;;;;;;5114514;28;20149;-67
2022/11/12 12:02:54;;;;;;;154.60;48.10;;;;;;;;;;5114420;28;20126;-67
2022/11/12 12:05:20;;;;;;;144.98;49.33;;;9.10;99.90;;;;;;5114318;28;20056;-69
2022/11/12 12:08:02;;;;;;;149.18;49.35;;;9.50;99.90;;;;;;5114038;28;20126;-67
2022/11/12 12:10:55;;;;;;;148.32;48.75;;;9.20;99.90;;;;;;5114213;28;20058;-67
2022/11/12 12:13:53;;;;;;;142.13;48.58;;;9.50;99.90;;;;;;5113007;28;20035;-67
2022/11/12 12:16:34;;;;;;;;;;;9.50;99.90;;;;;;5114578;28;20131;-67
2022/11/12 12:19:32;;;;;;;145.50;48.13;;;9.40;99.90;;;;;;5114216;28;19924;-70
2022/11/12 12:22:00;;;;;;;147.65;50.25;;;9.10;99.90;;;;;;5097203;28;20105;-67
2022/11/12 12:24:50;;;;;;;157.02;51.10;;;9.40;99.90;;;;;;5113993;28;20100;-67
2022/11/12 12:27:21;;;;;;;147.02;51.30;;;9.30;99.90;;;;;;5114088;28;20096;-67
2022/11/12 12:29:54;;;;;;;152.63;53.00;;;9.50;99.90;;;;;;5114065;28;20047;-67
2022/11/12 12:32:37;;;;;;;129.40;50.20;;;9.40;99.90;;;;;;5113933;27;20399;-72
2022/11/12 12:35:27;;;;;;;123.68;51.58;;;9.50;99.90;;;;;;5112543;28;20071;-67
2022/11/12 12:38:11;;;;;;;114.55;47.45;;;9.60;99.90;;;;;;5113752;28;20058;-67
2022/11/12 12:40:39;;;;;;;129.88;50.60;;;9.50;99.90;;;;;;5113833;28;20105;-67
2022/11/12 12:43:15;;;;;;;130.35;51.95;;;9.90;99.90;;;;;;5113681;28;20142;-69
2022/11/12 12:45:45;;;;;;;138.13;52.17;;;9.60;99.90;;;;;;5113676;28;20055;-68
2022/11/12 12:48:23;;;;;;;133.25;51.03;;;9.60;99.90;;;;;;5113612;28;20051;-69
2022/11/12 12:50:51;;;;;;;137.05;52.53;;;9.80;99.90;;;;;;5113327;28;20104;-67
2022/11/12 12:53:21;;;;;;;126.30;49.42;;;9.60;99.90;;;;;;5113483;28;20044;-67
2022/11/12 12:55:47;;;;;;;135.15;52.00;;;9.40;99.90;;;;;;5113472;28;20043;-67
2022/11/12 12:58:39;;;;;;;118.75;47.53;;;9.50;99.90;;;;;;5113515;28;20043;-67
2022/11/12 13:01:30;;;;;;;147.07;53.10;;;9.70;99.90;;;;;;5113408;28;20510;-67
2022/11/12 13:04:07;;;;;;;122.07;50.60;;;9.60;99.90;;;;;;5113407;28;20048;-70
2022/11/12 13:06:34;;;;;;;126.93;50.35;;;9.60;99.90;;;;;;5112826;28;20483;-67
2022/11/12 13:09:25;;;;;;;123.80;50.13;;;10.00;99.90;;;;;;5113036;28;20399;-67
2022/11/12 13:14:30;;;;;;;129.60;49.22;;;9.60;99.90;;;;;;5113046;28;20083;-67
2022/11/12 13:17:10;;;;;;;120.95;50.53;;;9.60;99.90;;;;;;5113299;28;20109;-69
2022/11/12 13:19:55;;;;;;;114.05;49.63;;;10.10;99.90;;;;;;5111796;28;20051;-68
2022/11/12 13:22:22;;;;;;;110.18;48.70;;;10.10;99.90;;;;;;5113188;28;20045;-68